Time;durP1;ratioP1;P1;durP2;ratioP2;P2;SDS_P1;SDS_P2;PMS_P1;PMS_P2;Temp;Humidity;BMP_temperature;BMP_pressure;BME280_temperature;BME280_humidity;BME280_pressure;Samples;Min_cycle;Max_cycle;Signal;HPM_P1;HPM_P2
2021/05/11 00:00:43;;;;;;;1.95;0.77;;;;;;;18.43;32.42;100461.22;3531709;40;20062;-74
2021/05/11 00:03:10;;;;;;;2.38;0.70;;;;;;;18.41;32.40;100463.31;3532768;40;20062;-74
2021/05/11 00:05:38;;;;;;;1.02;0.70;;;;;;;18.39;32.25;100462.63;3525128;40;20050;-74
2021/05/11 00:08:05;;;;;;;0.93;0.70;;;;;;;18.38;32.12;100461.78;3531069;40;20122;-74
2021/05/11 00:10:33;;;;;;;1.85;0.80;;;;;;;18.37;32.66;100473.03;3531469;40;20293;-74
2021/05/11 00:13:00;;;;;;;1.55;0.75;;;;;;;18.36;32.41;100466.66;3531574;40;20055;-74
2021/05/11 00:15:27;;;;;;;1.00;0.60;;;;;;;18.34;32.56;100471.53;3531288;40;20290;-74
2021/05/11 00:17:56;;;;;;;1.60;0.90;;;;;;;18.35;32.73;100487.09;3530460;40;20057;-74
2021/05/11 00:20:23;;;;;;;0.95;0.60;;;;;;;18.33;32.90;100491.09;3527593;40;20051;-74
2021/05/11 00:22:50;;;;;;;1.98;0.68;;;;;;;18.32;33.19;100483.84;3527385;40;20050;-73
2021/05/11 00:25:18;;;;;;;2.47;1.00;;;;;;;18.31;33.58;100483.00;3531142;40;20134;-73
2021/05/11 00:27:46;;;;;;;1.58;0.77;;;;;;;18.31;33.73;100482.13;3526310;40;20059;-73
2021/05/11 00:30:14;;;;;;;1.15;0.80;;;;;;;18.30;33.68;100486.81;3526882;40;20066;-73
2021/05/11 00:32:41;;;;;;;2.20;0.80;;;;;;;18.28;33.81;100488.91;3535884;40;20416;-72
2021/05/11 00:35:10;;;;;;;1.55;0.65;;;;;;;18.28;33.73;100488.03;3527069;40;20293;-71
2021/05/11 00:37:37;;;;;;;1.88;0.70;;;;;;;18.25;34.18;100482.91;3531100;40;20051;-72
2021/05/11 00:40:05;;;;;;;2.58;0.80;;;;;;;18.23;34.43;100480.31;3529128;40;20059;-72
2021/05/11 00:42:33;;;;;;;1.65;0.80;;;;;;;18.19;34.73;100479.00;3530352;40;20059;-73
2021/05/11 00:45:00;;;;;;;1.73;0.90;;;;;;;18.17;34.68;100481.09;3529906;40;20103;-72
2021/05/11 00:47:28;;;;;;;1.38;0.90;;;;;;;18.15;34.44;100477.66;3529941;40;20051;-72
2021/05/11 00:49:56;;;;;;;1.98;1.15;;;;;;;18.13;34.62;100481.66;3530277;40;20401;-72
2021/05/11 00:52:24;;;;;;;1.98;1.30;;;;;;;18.11;34.82;100478.25;3525571;40;20051;-72
2021/05/11 00:54:52;;;;;;;2.25;1.27;;;;;;;18.07;34.89;100483.28;3531952;40;20047;-72
2021/05/11 00:57:20;;;;;;;1.70;1.13;;;;;;;18.04;35.31;100489.19;3530635;40;20051;-71
2021/05/11 00:59:51;;;;;;;2.05;1.20;;;;;;;18.02;35.30;100486.59;3531543;40;20051;-73
2021/05/11 01:02:18;;;;;;;2.20;1.30;;;;;;;17.97;35.91;100489.06;3529186;40;20055;-73
2021/05/11 01:04:46;;;;;;;3.00;1.60;;;;;;;17.96;35.64;100487.34;3527739;40;20055;-74
2021/05/11 01:07:13;;;;;;;2.17;1.50;;;;;;;17.94;35.73;100478.38;3530756;40;20054;-73
2021/05/11 01:09:51;;;;;;;2.95;1.80;;;;;;;17.93;36.49;100475.81;3530165;40;20059;-73
2021/05/11 01:12:19;;;;;;;3.20;1.73;;;;;;;17.90;36.39;100477.03;3543153;40;20063;-73
2021/05/11 01:14:47;;;;;;;3.50;1.98;;;;;;;17.88;36.70;100481.03;3535222;40;20399;-73
2021/05/11 01:17:17;;;;;;;3.60;1.80;;;;;;;17.83;37.02;100484.38;3533765;40;20412;-72
2021/05/11 01:19:48;;;;;;;3.50;2.00;;;;;;;17.80;37.32;100478.34;3531978;40;20047;-72
2021/05/11 01:25:09;;;;;;;3.20;1.77;;;;;;;17.73;37.07;100491.22;3527900;40;20059;-71
2021/05/11 01:27:48;;;;;;;2.58;1.73;;;;;;;17.69;37.62;100491.63;3535378;40;20058;-71
2021/05/11 01:30:42;;;;;;;3.25;1.80;;;;;;;17.68;37.85;100498.19;3527978;40;20077;-72
2021/05/11 01:44:37;;;;;;;3.33;1.95;;;;;;;17.49;38.76;100490.41;3534828;40;20042;-71
2021/05/11 01:50:11;;;;;;;2.85;2.00;;;;;;;17.43;38.55;100493.06;3500618;41;20058;-71
2021/05/11 01:52:52;;;;;;;3.45;2.05;;;;;;;17.41;38.95;100482.19;3525518;40;20066;-72
2021/05/11 01:55:29;;;;;;;3.17;1.92;;;;;;;17.41;39.20;100482.19;3532703;40;20507;-72
2021/05/11 01:58:21;;;;;;;3.80;1.98;;;;;;;17.39;39.30;100483.41;3530018;40;20142;-71
2021/05/11 02:22:51;;;;;;;3.45;2.10;;;;;;;17.22;39.63;100464.16;3527120;40;20130;-73
2021/05/11 02:25:20;;;;;;;3.60;2.35;;;;;;;17.23;39.71;100470.56;3529517;40;20042;-73
2021/05/11 02:27:49;;;;;;;3.47;2.30;;;;;;;17.23;40.31;100476.09;3534000;40;20138;-72
2021/05/11 02:30:17;;;;;;;3.55;2.20;;;;;;;17.22;40.07;100468.81;3529072;40;20051;-73
2021/05/11 02:32:45;;;;;;;3.15;2.28;;;;;;;17.21;40.21;100464.34;3531592;40;20055;-73
2021/05/11 02:35:14;;;;;;;3.22;2.28;;;;;;;17.22;40.33;100474.34;3534939;40;20509;-73
2021/05/11 02:37:43;;;;;;;3.72;2.60;;;;;;;17.20;40.50;100470.94;3531846;40;20054;-73
2021/05/11 02:40:12;;;;;;;3.83;2.47;;;;;;;17.20;40.62;100468.19;3525725;40;20376;-72
2021/05/11 02:42:41;;;;;;;3.60;2.30;;;;;;;17.18;40.13;100467.50;3528297;40;20266;-72
2021/05/11 02:45:12;;;;;;;3.47;2.10;;;;;;;17.19;40.42;100470.09;3533855;40;20054;-72
2021/05/11 02:47:48;;;;;;;3.53;1.90;;;;;;;17.16;40.36;100458.53;3533366;40;20043;-73
2021/05/11 02:50:16;;;;;;;3.78;1.92;;;;;;;17.15;40.38;100454.91;3529090;40;20047;-73
2021/05/11 02:52:45;;;;;;;3.47;2.10;;;;;;;17.13;40.44;100447.81;3527716;40;20054;-73
2021/05/11 02:55:13;;;;;;;3.50;2.00;;;;;;;17.12;40.66;100446.13;3532634;40;20055;-73
2021/05/11 02:57:40;;;;;;;3.08;2.00;;;;;;;17.09;40.19;100450.13;3529011;40;20062;-72
2021/05/11 03:00:11;;;;;;;3.95;1.90;;;;;;;17.10;40.38;100462.03;3528894;40;20336;-73
2021/05/11 03:02:38;;;;;;;3.08;1.90;;;;;;;17.06;40.44;100463.44;3526921;40;20054;-72
2021/05/11 03:05:07;;;;;;;3.53;2.00;;;;;;;17.07;40.72;100462.38;3535570;40;20119;-72
2021/05/11 03:07:35;;;;;;;3.22;1.70;;;;;;;17.03;40.06;100464.69;3528618;40;20099;-72
2021/05/11 03:10:05;;;;;;;4.32;1.80;;;;;;;17.03;40.31;100459.16;3529230;40;20104;-72
2021/05/11 03:12:32;;;;;;;2.50;1.65;;;;;;;16.99;40.17;100448.63;3528633;40;20130;-72
2021/05/11 03:14:59;;;;;;;3.50;1.80;;;;;;;17.00;40.36;100444.84;3533009;40;20106;-72
2021/05/11 03:17:28;;;;;;;2.83;1.60;;;;;;;16.99;40.27;100451.41;3531525;40;20050;-73
2021/05/11 03:19:55;;;;;;;3.15;1.55;;;;;;;16.94;40.16;100450.06;3535445;40;20055;-72
2021/05/11 03:22:23;;;;;;;3.03;1.50;;;;;;;16.93;40.20;100453.88;3527999;40;20058;-72
2021/05/11 03:24:50;;;;;;;2.70;1.52;;;;;;;16.92;40.41;100451.28;3533427;40;20047;-73
2021/05/11 03:27:18;;;;;;;3.83;1.42;;;;;;;16.91;40.16;100446.78;3530481;40;20387;-72
2021/05/11 03:29:45;;;;;;;3.83;1.30;;;;;;;16.88;40.15;100448.00;3535616;40;20055;-73
2021/05/11 03:32:13;;;;;;;2.40;1.42;;;;;;;16.86;40.82;100444.59;3527882;40;20047;-73
2021/05/11 03:34:41;;;;;;;4.00;1.90;;;;;;;16.85;40.37;100451.16;3532792;40;20130;-72
2021/05/11 03:37:08;;;;;;;2.30;1.48;;;;;;;16.83;40.82;100452.38;3529598;40;20043;-72
2021/05/11 03:39:38;;;;;;;2.70;1.70;;;;;;;16.82;40.72;100457.03;3528878;40;20054;-72
2021/05/11 03:42:10;;;;;;;2.70;1.40;;;;;;;16.81;40.54;100452.56;3525817;40;20058;-72
2021/05/11 03:44:39;;;;;;;4.03;1.60;;;;;;;16.78;40.65;100454.84;3533371;40;20114;-72
2021/05/11 03:47:07;;;;;;;4.72;1.60;;;;;;;16.78;40.72;100454.84;3526466;40;20055;-72
2021/05/11 03:49:38;;;;;;;2.70;1.63;;;;;;;16.76;40.94;100448.63;3528367;40;20054;-72
2021/05/11 03:52:07;;;;;;;3.70;1.98;;;;;;;16.75;41.00;100458.81;3531568;40;20691;-72
2021/05/11 03:54:35;;;;;;;2.90;1.73;;;;;;;16.72;41.03;100459.16;3531638;40;20317;-72
2021/05/11 03:57:04;;;;;;;2.85;1.83;;;;;;;16.71;41.54;100468.53;3530587;40;20067;-72
2021/05/11 03:59:34;;;;;;;3.65;2.10;;;;;;;16.69;41.03;100467.84;3530915;40;20113;-73
2021/05/11 04:02:02;;;;;;;3.88;1.92;;;;;;;16.68;41.22;100468.00;3530544;40;20391;-73
2021/05/11 04:04:31;;;;;;;4.13;2.33;;;;;;;16.67;41.62;100467.16;3533181;40;20099;-73
2021/05/11 04:06:59;;;;;;;4.72;2.38;;;;;;;16.66;41.51;100459.91;3531083;40;20047;-72
2021/05/11 04:09:31;;;;;;;3.33;2.33;;;;;;;16.67;41.50;100458.00;3530787;40;20043;-73
2021/05/11 04:17:32;;;;;;;3.97;2.47;;;;;;;16.60;41.69;100444.06;3532668;40;20050;-73
2021/05/11 04:20:00;;;;;;;3.80;2.10;;;;;;;16.60;41.53;100455.13;3530243;40;20055;-73
2021/05/11 04:22:29;;;;;;;3.40;2.00;;;;;;;16.61;41.37;100458.75;3528359;40;20051;-73
2021/05/11 04:24:57;;;;;;;2.90;1.85;;;;;;;16.61;41.85;100458.75;3528699;40;20051;-73
2021/05/11 04:27:25;;;;;;;3.00;1.92;;;;;;;16.58;41.81;100448.91;3533154;40;20090;-73
2021/05/11 04:29:58;;;;;;;3.40;1.85;;;;;;;16.56;41.90;100443.56;3527496;40;20047;-73
2021/05/11 04:32:26;;;;;;;3.85;2.38;;;;;;;16.56;42.12;100456.50;3530518;40;20039;-73
2021/05/11 04:34:53;;;;;;;3.35;2.00;;;;;;;16.55;41.74;100452.88;3527487;40;20057;-73
2021/05/11 04:37:21;;;;;;;3.75;1.95;;;;;;;16.54;42.22;100455.84;3534691;40;20114;-73
2021/05/11 04:39:49;;;;;;;3.95;2.38;;;;;;;16.53;41.94;100467.94;3528316;40;20051;-73
2021/05/11 04:42:18;;;;;;;3.25;2.08;;;;;;;16.53;42.05;100468.78;3523215;40;20039;-72
2021/05/11 04:44:45;;;;;;;3.67;2.30;;;;;;;16.51;42.00;100461.72;3526028;40;20339;-72
2021/05/11 04:47:15;;;;;;;3.60;2.33;;;;;;;16.51;42.04;100478.28;3527019;40;20429;-73
2021/05/11 04:49:43;;;;;;;4.13;2.42;;;;;;;16.50;42.38;100474.66;3527455;40;20432;-73
2021/05/11 04:52:11;;;;;;;4.13;2.50;;;;;;;16.49;42.54;100470.19;3530689;40;20043;-73
2021/05/11 04:54:39;;;;;;;3.22;2.05;;;;;;;16.49;42.03;100466.56;3534360;40;20053;-72
2021/05/11 04:57:07;;;;;;;4.22;2.50;;;;;;;16.49;42.06;100467.41;3531003;40;20062;-72
2021/05/11 04:59:36;;;;;;;3.15;1.83;;;;;;;16.49;42.13;100466.56;3528699;40;20086;-73
2021/05/11 05:02:04;;;;;;;3.50;1.95;;;;;;;16.46;42.34;100461.38;3531666;40;20050;-73
2021/05/11 05:04:36;;;;;;;3.55;2.17;;;;;;;16.46;42.43;100450.34;3531297;40;20071;-73
2021/05/11 05:07:04;;;;;;;3.95;2.15;;;;;;;16.45;42.28;100445.84;3531484;40;20083;-72
2021/05/11 05:09:32;;;;;;;4.65;2.22;;;;;;;16.46;42.12;100453.97;3529875;40;20055;-73
2021/05/11 05:11:59;;;;;;;4.18;2.20;;;;;;;16.45;42.62;100452.25;3528821;40;20067;-73
2021/05/11 05:14:28;;;;;;;2.92;1.95;;;;;;;16.44;42.90;100453.28;3531843;40;20047;-73
2021/05/11 05:16:56;;;;;;;3.42;1.90;;;;;;;16.46;42.51;100453.09;3530658;40;20142;-72
2021/05/11 05:19:24;;;;;;;3.25;2.08;;;;;;;16.45;42.42;100459.66;3532070;40;20055;-73
2021/05/11 05:22:21;;;;;;;2.58;1.70;;;;;;;16.46;43.15;100461.38;3530163;40;20145;-73
2021/05/11 05:24:51;;;;;;;4.10;1.60;;;;;;;16.42;42.42;100457.25;3530048;40;20055;-73
2021/05/11 05:27:21;;;;;;;3.53;2.03;;;;;;;16.42;42.51;100458.13;3532855;40;20157;-73
2021/05/11 05:29:49;;;;;;;4.05;1.90;;;;;;;16.44;42.97;100457.94;3534040;40;20644;-73
2021/05/11 05:32:17;;;;;;;3.28;1.95;;;;;;;16.45;42.47;100448.63;3529183;40;20055;-73
2021/05/11 05:34:45;;;;;;;2.88;1.98;;;;;;;16.44;43.09;100446.91;3529266;40;20039;-73
2021/05/11 05:37:13;;;;;;;4.03;2.30;;;;;;;16.43;42.76;100440.50;3532364;40;20343;-73
2021/05/11 05:39:43;;;;;;;3.22;2.03;;;;;;;16.44;42.94;100436.72;3529373;40;20130;-73
2021/05/11 05:42:11;;;;;;;4.20;2.33;;;;;;;16.44;42.69;100433.94;3528384;40;20062;-73
2021/05/11 05:44:38;;;;;;;3.45;2.03;;;;;;;16.45;43.20;100426.53;3528687;40;20424;-72
2021/05/11 05:47:06;;;;;;;5.53;2.45;;;;;;;16.44;43.33;100419.28;3524252;40;20055;-73
2021/05/11 05:49:41;;;;;;;3.67;1.98;;;;;;;16.48;43.21;100423.41;3528912;40;20063;-76
2021/05/11 05:52:15;;;;;;;2.97;1.65;;;;;;;16.48;43.37;100415.13;3528619;40;20086;-74
2021/05/11 05:54:44;;;;;;;4.13;2.28;;;;;;;16.50;43.42;100416.69;3528754;40;20126;-76
2021/05/11 05:57:12;;;;;;;3.58;2.40;;;;;;;16.50;43.24;100418.59;3530818;40;20062;-76
2021/05/11 05:59:41;;;;;;;4.57;2.58;;;;;;;16.52;42.74;100411.00;3532606;40;20054;-75
2021/05/11 06:02:11;;;;;;;5.18;2.70;;;;;;;16.52;43.17;100416.50;3530852;40;20047;-75
2021/05/11 06:04:40;;;;;;;3.70;2.65;;;;;;;16.53;43.34;100413.56;3535210;40;20051;-75
2021/05/11 06:07:08;;;;;;;5.38;3.03;;;;;;;16.51;43.60;100400.97;3538593;40;20053;-73
2021/05/11 06:09:35;;;;;;;4.13;2.70;;;;;;;16.51;43.66;100399.09;3529122;40;20047;-74
2021/05/11 06:12:06;;;;;;;4.25;2.58;;;;;;;16.53;43.36;100393.38;3524993;40;20073;-73
2021/05/11 06:14:46;;;;;;;4.28;2.90;;;;;;;16.54;43.20;100404.25;3531530;40;20059;-74
2021/05/11 06:17:14;;;;;;;3.75;2.53;;;;;;;16.55;43.66;100408.69;3528864;40;20773;-74
2021/05/11 06:19:44;;;;;;;4.25;2.80;;;;;;;16.60;43.48;100421.97;3531886;40;20079;-76
2021/05/11 06:22:13;;;;;;;3.80;2.53;;;;;;;16.62;43.82;100419.03;3530358;40;20059;-76
2021/05/11 06:24:42;;;;;;;5.97;2.80;;;;;;;16.63;43.37;100429.06;3533752;40;20039;-73
2021/05/11 06:27:35;;;;;;;5.00;2.90;;;;;;;16.63;44.25;100432.63;3528812;40;20063;-72
2021/05/11 06:30:03;;;;;;;4.18;2.55;;;;;;;16.63;43.93;100438.16;3530656;40;20043;-74
2021/05/11 06:32:32;;;;;;;4.05;2.30;;;;;;;16.68;43.28;100438.50;3528813;40;20063;-74
2021/05/11 06:35:04;;;;;;;3.33;2.47;;;;;;;16.71;43.39;100448.34;3525731;40;20418;-75
2021/05/11 06:37:32;;;;;;;4.45;2.70;;;;;;;16.70;43.32;100454.91;3535149;40;20047;-75
2021/05/11 06:40:00;;;;;;;3.63;2.42;;;;;;;16.73;43.63;100460.91;3534811;40;20078;-74
2021/05/11 06:42:30;;;;;;;3.45;2.05;;;;;;;16.75;43.56;100461.56;3530614;40;20076;-73
2021/05/11 06:45:15;;;;;;;3.63;2.05;;;;;;;16.76;43.36;100462.44;3531242;40;20090;-73
2021/05/11 06:48:00;;;;;;;2.58;1.73;;;;;;;16.75;43.07;100455.19;3532126;40;20056;-73
2021/05/11 06:50:37;;;;;;;3.40;1.90;;;;;;;16.79;43.49;100456.56;3529393;40;20091;-74
2021/05/11 06:53:14;;;;;;;3.13;1.65;;;;;;;16.75;43.15;100450.53;3529224;40;20049;-74
2021/05/11 06:55:43;;;;;;;3.00;1.70;;;;;;;16.76;43.31;100446.72;3529225;40;20055;-74
2021/05/11 06:58:11;;;;;;;3.72;1.85;;;;;;;16.78;43.56;100443.78;3535330;40;20113;-74
2021/05/11 07:00:43;;;;;;;2.95;1.70;;;;;;;16.80;44.11;100441.69;3528953;40;20050;-74
2021/05/11 07:03:11;;;;;;;3.80;2.33;;;;;;;16.78;43.47;100435.50;3529523;40;20051;-72
2021/05/11 07:05:40;;;;;;;4.07;2.45;;;;;;;16.81;43.32;100432.34;3532525;40;20157;-74
2021/05/11 07:08:12;;;;;;;4.15;2.60;;;;;;;16.80;43.47;100420.44;3529175;40;20056;-73
2021/05/11 07:10:41;;;;;;;4.20;2.13;;;;;;;16.82;43.33;100418.38;3527606;40;20324;-74
2021/05/11 07:13:12;;;;;;;4.35;2.05;;;;;;;16.84;43.70;100420.94;3528167;40;20063;-74
2021/05/11 07:15:42;;;;;;;3.10;2.10;;;;;;;16.85;43.98;100426.31;3530537;40;20548;-74
2021/05/11 07:18:15;;;;;;;3.60;1.70;;;;;;;16.92;44.30;100423.66;3521211;40;20117;-73
2021/05/11 07:20:46;;;;;;;3.83;2.00;;;;;;;16.92;44.16;100415.38;3528560;40;20074;-73
2021/05/11 07:23:17;;;;;;;3.63;1.77;;;;;;;16.94;43.50;100405.00;3527048;40;20047;-74
2021/05/11 07:25:53;;;;;;;3.85;2.10;;;;;;;16.96;43.95;100408.41;3530721;40;20281;-74
2021/05/11 07:31:11;;;;;;;2.83;1.75;;;;;;;17.03;43.90;100419.59;3527507;40;20063;-78
2021/05/11 07:33:42;;;;;;;2.72;1.73;;;;;;;17.06;43.33;100411.78;3524660;40;20058;-75
2021/05/11 07:36:11;;;;;;;3.42;2.38;;;;;;;17.10;43.89;100412.28;3534470;40;20062;-75
2021/05/11 07:38:43;;;;;;;3.63;2.05;;;;;;;17.10;44.00;100407.63;3528191;40;20130;-74
2021/05/11 07:41:13;;;;;;;5.72;3.90;;;;;;;17.14;43.91;100402.56;3531495;40;20061;-75
2021/05/11 07:43:42;;;;;;;5.38;3.90;;;;;;;17.16;43.80;100406.88;3528250;40;20462;-74
2021/05/11 07:46:29;;;;;;;4.57;2.95;;;;;;;17.19;43.89;100402.88;3529626;40;20051;-74
2021/05/11 08:05:51;;;;;;;4.72;2.80;;;;;;;17.35;43.85;100372.34;3532902;40;20322;-75
2021/05/11 08:16:42;;;;;;;4.43;2.67;;;;;;;17.55;43.49;100365.19;3524128;40;20502;-75
2021/05/11 08:19:16;;;;;;;3.80;2.40;;;;;;;17.57;43.44;100362.25;3527535;40;20051;-75
2021/05/11 08:27:38;;;;;;;3.58;2.10;;;;;;;17.72;43.06;100367.78;3529169;40;20077;-75
2021/05/11 08:30:07;;;;;;;4.18;2.08;;;;;;;17.76;42.93;100377.44;3531430;40;20062;-75
2021/05/11 08:32:34;;;;;;;3.97;2.10;;;;;;;17.80;42.48;100373.22;3522029;40;20059;-75
2021/05/11 08:35:03;;;;;;;3.95;1.88;;;;;;;17.87;42.39;100374.16;3537506;40;20059;-75
2021/05/11 08:37:31;;;;;;;3.65;1.98;;;;;;;17.91;42.43;100376.38;3527778;40;20066;-76
2021/05/11 08:40:00;;;;;;;4.43;2.33;;;;;;;17.98;42.27;100382.84;3528612;40;20058;-75
2021/05/11 08:42:31;;;;;;;3.05;2.00;;;;;;;18.05;42.25;100391.25;3528483;40;20063;-76
2021/05/11 08:45:03;;;;;;;3.15;2.10;;;;;;;18.12;42.86;100399.66;3528927;40;20130;-75
2021/05/11 08:47:32;;;;;;;4.03;2.25;;;;;;;18.14;42.70;100397.56;3535247;40;20051;-75
2021/05/11 08:50:01;;;;;;;3.47;2.33;;;;;;;18.20;41.95;100394.00;3529050;40;20490;-75
2021/05/11 08:52:41;;;;;;;3.45;2.13;;;;;;;18.27;41.78;100390.31;3528460;40;20055;-75
2021/05/11 08:55:26;;;;;;;3.47;2.30;;;;;;;18.30;41.80;100387.13;3528622;40;20040;-75
2021/05/11 09:06:43;;;;;;;5.05;2.88;;;;;;;18.38;41.61;100391.69;3529131;40;20107;-76
2021/05/11 09:09:38;;;;;;;4.47;2.70;;;;;;;18.40;41.45;100392.34;3527688;40;20047;-75
2021/05/11 09:15:40;;;;;;;4.55;2.85;;;;;;;18.38;40.65;100372.31;3528488;40;20095;-76
2021/05/11 09:24:07;;;;;;;3.83;2.13;;;;;;;18.40;40.60;100350.81;3528296;40;20091;-76
2021/05/11 09:26:42;;;;;;;4.07;2.10;;;;;;;18.40;40.82;100346.13;3528412;40;20059;-76
2021/05/11 09:29:33;;;;;;;3.53;1.90;;;;;;;18.44;39.96;100344.69;3528043;40;20059;-76
2021/05/11 09:44:47;;;;;;;3.10;1.88;;;;;;;18.46;40.57;100333.41;3535413;40;20055;-76
2021/05/11 09:52:26;;;;;;;4.35;2.30;;;;;;;18.54;40.59;100354.56;3532852;40;20061;-76
2021/05/11 09:55:04;;;;;;;3.85;2.58;;;;;;;18.51;40.10;100357.75;3525192;40;20362;-76
2021/05/11 09:57:42;;;;;;;4.13;2.63;;;;;;;18.53;40.40;100352.84;3534499;40;20134;-76
2021/05/11 10:48:41;;;;;;;3.75;1.88;;;;;;;18.27;40.41;100331.28;3525049;40;20051;-76
2021/05/11 10:51:25;;;;;;;6.55;2.88;;;;;;;18.26;40.40;100324.91;3529723;40;20055;-75
2021/05/11 10:53:57;;;;;;;4.57;2.45;;;;;;;18.26;40.19;100318.50;3528215;40;20047;-75
2021/05/11 10:56:51;;;;;;;5.28;2.40;;;;;;;18.25;39.79;100314.88;3535417;40;20417;-76
2021/05/11 11:02:36;;;;;;;4.40;2.47;;;;;;;18.32;39.81;100317.72;3516037;40;20119;-74
2021/05/11 11:05:06;;;;;;;3.92;2.28;;;;;;;18.33;40.25;100322.19;3534849;40;20417;-76
2021/05/11 11:07:37;;;;;;;3.67;2.30;;;;;;;18.38;40.13;100334.38;3530149;40;20058;-75
2021/05/11 11:10:08;;;;;;;4.93;2.70;;;;;;;18.41;40.19;100338.69;3533476;40;20058;-76
2021/05/11 11:12:39;;;;;;;4.28;2.72;;;;;;;18.43;39.93;100342.13;3528150;40;20066;-76
2021/05/11 11:15:13;;;;;;;4.65;2.90;;;;;;;18.46;39.28;100344.50;3529515;40;20061;-77
2021/05/11 11:17:43;;;;;;;4.15;2.45;;;;;;;18.44;39.38;100346.63;3530633;40;20406;-77
2021/05/11 11:20:13;;;;;;;4.38;2.60;;;;;;;18.46;39.32;100347.25;3527102;40;20181;-77
2021/05/11 11:25:42;;;;;;;3.30;2.13;;;;;;;18.44;39.71;100350.22;3526752;40;20054;-76
2021/05/11 11:28:09;;;;;;;4.38;2.65;;;;;;;18.48;40.09;100341.53;3517381;40;20142;-78
2021/05/11 11:30:37;;;;;;;4.68;2.50;;;;;;;18.49;39.43;100341.34;3521111;40;20329;-75
2021/05/11 11:33:05;;;;;;;4.22;2.08;;;;;;;18.53;39.67;100344.56;3531517;40;20062;-77
2021/05/11 11:35:33;;;;;;;3.33;2.03;;;;;;;18.56;39.25;100342.25;3532103;40;20060;-77
2021/05/11 11:38:05;;;;;;;3.60;2.35;;;;;;;18.61;38.97;100348.06;3530605;40;20085;-77
2021/05/11 11:40:33;;;;;;;3.80;2.20;;;;;;;18.61;39.44;100341.66;3531697;40;20122;-77
2021/05/11 11:43:01;;;;;;;4.38;2.53;;;;;;;18.66;39.17;100341.94;3534848;40;20066;-77
2021/05/11 11:45:30;;;;;;;4.20;2.42;;;;;;;18.69;39.27;100342.38;3524837;40;20047;-77
2021/05/11 11:48:00;;;;;;;4.20;2.75;;;;;;;18.75;39.50;100340.75;3527795;40;20043;-77
2021/05/11 11:50:34;;;;;;;4.82;2.88;;;;;;;18.78;39.52;100341.22;3529696;40;20455;-77
2021/05/11 11:53:13;;;;;;;4.53;2.70;;;;;;;18.84;39.51;100350.69;3530854;40;20061;-77
2021/05/11 11:55:59;;;;;;;5.68;2.78;;;;;;;18.82;39.52;100352.78;3529800;40;20074;-77
2021/05/11 11:58:32;;;;;;;3.47;2.28;;;;;;;18.83;38.85;100361.97;3529926;40;20036;-77
2021/05/11 12:01:11;;;;;;;4.10;2.45;;;;;;;18.85;39.23;100369.03;3525016;40;20111;-77
2021/05/11 12:03:42;;;;;;;3.20;2.20;;;;;;;18.83;39.38;100364.72;3528644;40;20062;-78
2021/05/11 12:06:15;;;;;;;4.45;2.00;;;;;;;18.85;39.02;100359.84;3529246;40;20036;-78
2021/05/11 12:08:44;;;;;;;3.75;2.40;;;;;;;18.87;38.42;100360.50;3529384;40;20133;-77
2021/05/11 12:11:11;;;;;;;4.18;2.40;;;;;;;18.86;38.49;100358.78;3540653;40;20035;-78
2021/05/11 12:13:40;;;;;;;3.83;2.25;;;;;;;18.87;39.24;100358.56;3533503;40;20471;-77
2021/05/11 12:16:15;;;;;;;3.85;2.42;;;;;;;18.90;38.34;100360.09;3530668;40;20141;-78
2021/05/11 12:19:03;;;;;;;3.75;2.33;;;;;;;18.90;38.60;100358.19;3529518;40;20051;-77
2021/05/11 12:21:32;;;;;;;2.75;1.95;;;;;;;18.87;38.60;100358.56;3529265;40;20047;-78
2021/05/11 12:24:09;;;;;;;4.43;2.30;;;;;;;18.94;38.27;100367.81;3537711;40;20058;-77
2021/05/11 12:26:39;;;;;;;4.10;2.50;;;;;;;18.90;38.54;100363.72;3520319;40;20040;-78
2021/05/11 12:29:10;;;;;;;5.13;2.90;;;;;;;18.92;38.87;100363.53;3533385;40;20150;-78
2021/05/11 12:31:39;;;;;;;4.20;2.58;;;;;;;18.91;38.39;100365.47;3525785;40;20496;-80
2021/05/11 12:34:09;;;;;;;4.93;2.33;;;;;;;18.90;38.59;100362.88;3529444;40;20281;-80
2021/05/11 12:36:45;;;;;;;4.00;2.92;;;;;;;18.89;38.40;100355.63;3523827;40;20055;-78
2021/05/11 12:42:17;;;;;;;4.13;2.70;;;;;;;18.86;38.70;100353.22;3519798;40;20032;-78
2021/05/11 12:44:46;;;;;;;4.43;2.83;;;;;;;18.82;39.23;100363.88;3531920;40;20389;-77
2021/05/11 12:47:16;;;;;;;5.07;2.67;;;;;;;18.84;39.32;100358.13;3538248;40;20506;-78
2021/05/11 12:49:44;;;;;;;3.97;2.78;;;;;;;18.81;39.28;100363.00;3531302;40;20408;-77
2021/05/11 12:52:12;;;;;;;5.47;2.97;;;;;;;18.82;39.51;100374.97;3530403;40;20059;-78
2021/05/11 12:54:46;;;;;;;6.20;3.08;;;;;;;18.86;39.67;100373.47;3527015;40;20044;-77
2021/05/11 12:57:34;;;;;;;5.80;3.38;;;;;;;18.88;39.57;100376.94;3523926;40;20317;-77
2021/05/11 13:00:07;;;;;;;5.28;3.05;;;;;;;18.86;39.35;100375.41;3528746;40;20062;-77
2021/05/11 13:02:51;;;;;;;3.90;2.78;;;;;;;18.90;39.49;100363.72;3527010;40;20054;-76
2021/05/11 13:16:58;;;;;;;4.70;2.30;;;;;;;18.84;38.17;100358.13;3527782;40;20051;-79
2021/05/11 13:22:34;;;;;;;3.42;2.55;;;;;;;18.81;38.66;100374.09;3518835;40;20082;-77
2021/05/11 13:28:03;;;;;;;4.15;2.70;;;;;;;18.80;38.48;100372.38;3530575;40;20066;-82
2021/05/11 13:30:37;;;;;;;3.85;2.55;;;;;;;18.79;38.82;100367.88;3522641;40;20380;-80
2021/05/11 13:33:17;;;;;;;3.45;2.47;;;;;;;18.79;38.93;100376.19;3534212;40;20054;-78
2021/05/11 13:35:45;;;;;;;5.07;2.70;;;;;;;18.79;38.34;100367.88;3521491;40;20349;-78
2021/05/11 13:38:13;;;;;;;3.58;2.70;;;;;;;18.80;38.86;100371.50;3535277;40;20027;-78
2021/05/11 13:40:41;;;;;;;4.95;3.20;;;;;;;18.81;38.55;100378.78;3527349;40;20130;-78
2021/05/11 13:43:09;;;;;;;4.00;2.38;;;;;;;18.84;38.72;100394.16;3531868;40;20067;-79
2021/05/11 13:45:37;;;;;;;2.92;2.15;;;;;;;18.81;38.63;100385.19;3525735;40;20036;-78
2021/05/11 13:48:11;;;;;;;3.42;2.00;;;;;;;18.84;38.54;100388.63;3531708;40;20114;-78
2021/05/11 13:50:53;;;;;;;2.92;2.15;;;;;;;18.81;38.17;100376.00;3528016;40;20096;-82
2021/05/11 13:53:24;;;;;;;3.20;2.33;;;;;;;18.79;38.64;100370.66;3538335;40;20038;-80
2021/05/11 13:56:04;;;;;;;4.17;2.83;;;;;;;18.78;38.40;100382.78;3530567;40;20039;-77
2021/05/11 14:04:18;;;;;;;5.85;3.83;;;;;;;18.76;38.56;100379.34;3500373;41;20383;-84
2021/05/11 14:06:47;;;;;;;4.90;3.83;;;;;;;18.76;38.44;100370.19;3513541;40;20365;-80
2021/05/11 14:09:15;;;;;;;7.20;3.60;;;;;;;18.73;39.19;100371.41;3529746;40;20055;-79
2021/05/11 14:11:43;;;;;;;4.88;3.28;;;;;;;18.70;39.13;100382.03;3533925;40;20411;-77
2021/05/11 14:14:14;;;;;;;4.60;3.20;;;;;;;18.69;38.77;100377.56;3527896;40;20043;-78
2021/05/11 14:16:45;;;;;;;5.90;3.40;;;;;;;18.67;39.34;100375.00;3533357;40;20345;-77
2021/05/11 14:19:14;;;;;;;4.45;3.00;;;;;;;18.62;39.19;100371.06;3539124;40;20101;-78
2021/05/11 14:21:42;;;;;;;4.25;2.75;;;;;;;18.60;38.99;100373.22;3526317;40;20059;-78
2021/05/11 14:24:10;;;;;;;4.95;3.13;;;;;;;18.58;39.07;100367.00;3528662;40;20047;-77
2021/05/11 14:26:39;;;;;;;4.53;2.85;;;;;;;18.57;39.62;100362.50;3533471;40;20138;-75
2021/05/11 14:29:06;;;;;;;4.70;3.35;;;;;;;18.54;39.34;100358.22;3532885;40;20062;-75
2021/05/11 14:31:35;;;;;;;4.07;3.28;;;;;;;18.53;39.84;100352.84;3530361;40;20383;-76
2021/05/11 14:34:05;;;;;;;3.53;2.42;;;;;;;18.50;40.05;100356.03;3530640;40;20044;-75
2021/05/11 14:36:33;;;;;;;4.90;3.05;;;;;;;18.47;40.19;100356.44;3529297;40;20063;-77
2021/05/11 14:39:01;;;;;;;3.65;2.65;;;;;;;18.44;39.79;100350.22;3528647;40;20063;-74
2021/05/11 14:41:29;;;;;;;4.25;2.78;;;;;;;18.41;39.81;100347.84;3530592;40;20137;-74
2021/05/11 14:43:57;;;;;;;3.53;2.67;;;;;;;18.41;40.28;100344.22;3527724;40;20424;-74
2021/05/11 14:46:25;;;;;;;4.05;2.88;;;;;;;18.36;39.92;100342.03;3532205;40;20050;-74
2021/05/11 14:48:54;;;;;;;3.90;3.15;;;;;;;18.36;40.58;100349.50;3529478;40;20082;-75
2021/05/11 14:51:22;;;;;;;4.57;3.00;;;;;;;18.31;40.07;100344.53;3528913;40;20059;-76
2021/05/11 14:53:50;;;;;;;4.65;2.88;;;;;;;18.29;40.32;100343.88;3529923;40;20393;-74
2021/05/11 14:56:17;;;;;;;4.50;3.08;;;;;;;18.27;40.53;100348.78;3536189;40;20058;-76